createdAt,value
2023-05-09T00:01:36.337Z,97594.22
2023-05-09T00:06:57.461Z,97597.38
2023-05-09T00:12:18.368Z,97584.97
2023-05-09T00:17:40.285Z,97583.22
2023-05-09T00:23:01.283Z,97585.31
2023-05-09T00:28:22.439Z,97581.38
2023-05-09T00:33:43.657Z,97574.59
2023-05-09T00:39:05.637Z,97574.63
2023-05-09T00:44:26.681Z,97571.69
2023-05-09T00:49:47.362Z,97566.28
2023-05-09T00:55:08.834Z,97573.25
2023-05-09T01:00:30.329Z,97567.25
2023-05-09T01:06:15.262Z,97561.00
2023-05-09T01:11:53.020Z,97566.94
2023-05-09T01:17:30.830Z,97555.38
2023-05-09T01:23:00.876Z,97550.91
2023-05-09T01:28:36.740Z,97551.16
2023-05-09T01:34:00.561Z,97553.63
2023-05-09T01:39:24.989Z,97552.69
2023-05-09T01:44:47.259Z,97550.50
2023-05-09T01:50:11.040Z,97542.56
2023-05-09T01:55:37.347Z,97533.22
2023-05-09T02:00:59.494Z,97536.19
2023-05-09T02:06:23.427Z,97522.31
2023-05-09T02:11:44.997Z,97521.19
2023-05-09T02:17:07.134Z,97523.50
2023-05-09T02:22:28.406Z,97516.53
2023-05-09T02:27:51.203Z,97508.03
2023-05-09T02:33:13.942Z,97504.81
2023-05-09T02:38:36.410Z,97504.19
2023-05-09T02:43:57.564Z,97506.59
2023-05-09T02:49:31.577Z,97502.94
2023-05-09T02:54:53.779Z,97505.75
2023-05-09T03:00:15.813Z,97495.25
2023-05-09T03:05:37.100Z,97505.44
2023-05-09T03:10:58.324Z,97500.94
2023-05-09T03:16:20.323Z,97498.75
2023-05-09T03:21:42.321Z,97507.41
2023-05-09T03:27:03.218Z,97500.25
2023-05-09T03:32:24.466Z,97491.31
2023-05-09T03:37:45.432Z,97487.16
2023-05-09T03:43:06.314Z,97487.78
2023-05-09T03:48:27.585Z,97493.19
2023-05-09T03:53:48.550Z,97489.72
2023-05-09T03:59:10.536Z,97489.22
2023-05-09T04:04:32.092Z,97483.63
2023-05-09T04:09:58.617Z,97486.97
2023-05-09T04:15:19.828Z,97481.22
2023-05-09T04:20:40.890Z,97481.88
2023-05-09T04:26:02.500Z,97481.13
2023-05-09T04:31:24.376Z,97473.75
2023-05-09T04:36:46.727Z,97472.34
2023-05-09T04:42:08.067Z,97465.59
2023-05-09T04:47:28.993Z,97462.50
2023-05-09T04:52:50.040Z,97461.41
2023-05-09T04:58:12.853Z,97464.53
2023-05-09T05:03:33.880Z,97465.22
2023-05-09T05:08:54.907Z,97466.72
2023-05-09T05:14:16.545Z,97456.50
2023-05-09T05:19:37.742Z,97463.84
2023-05-09T05:25:01.076Z,97464.53
2023-05-09T05:30:22.166Z,97460.97
2023-05-09T05:35:43.407Z,97461.41
2023-05-09T05:41:04.825Z,97450.50
2023-05-09T05:46:27.305Z,97441.56
2023-05-09T05:51:49.196Z,97447.78
2023-05-09T05:57:10.603Z,97453.75
2023-05-09T06:02:31.860Z,97443.13
2023-05-09T06:07:53.172Z,97445.06
2023-05-09T06:13:13.923Z,97440.59
2023-05-09T06:18:40.249Z,97446.59
2023-05-09T06:24:08.501Z,97440.25
2023-05-09T06:29:31.233Z,97431.56
2023-05-09T06:34:52.800Z,97434.06
2023-05-09T06:40:17.229Z,97431.16
2023-05-09T06:45:38.305Z,97434.41
2023-05-09T06:50:59.143Z,97421.25
2023-05-09T06:56:21.560Z,97406.06
2023-05-09T07:01:42.832Z,97411.28
2023-05-09T07:07:03.794Z,97405.84
2023-05-09T07:12:24.936Z,97402.78
2023-05-09T07:17:45.791Z,97397.63
2023-05-09T07:23:07.002Z,97389.84
2023-05-09T07:28:28.245Z,97381.47
2023-05-09T07:33:49.404Z,97382.31
2023-05-09T07:39:10.707Z,97377.91
2023-05-09T07:44:31.654Z,97361.81
2023-05-09T07:49:52.810Z,97366.00
2023-05-09T07:55:14.082Z,97359.09
2023-05-09T08:00:38.391Z,97355.59
2023-05-09T08:05:59.382Z,97346.34
2023-05-09T08:11:20.183Z,97335.34
2023-05-09T08:16:43.549Z,97328.59
2023-05-09T08:22:04.871Z,97332.63
2023-05-09T08:27:26.326Z,97327.28
2023-05-09T08:32:47.571Z,97326.34
2023-05-09T08:38:10.370Z,97325.56
2023-05-09T08:43:34.174Z,97320.78
2023-05-09T08:48:56.923Z,97311.81
2023-05-09T08:54:20.751Z,97302.13
2023-05-09T08:59:44.004Z,97301.31
2023-05-09T09:05:16.393Z,97304.13
2023-05-09T09:10:49.715Z,97285.50
2023-05-09T09:16:14.709Z,97286.09
2023-05-09T09:21:36.699Z,97276.88
2023-05-09T09:26:57.728Z,97275.16
2023-05-09T09:32:19.756Z,97280.59
2023-05-09T09:37:41.762Z,97272.09
2023-05-09T09:43:07.053Z,97261.78
2023-05-09T09:48:32.313Z,97262.75
2023-05-09T09:53:53.465Z,97247.19
2023-05-09T09:59:16.422Z,97242.13
2023-05-09T10:04:39.358Z,97227.53
2023-05-09T10:10:01.073Z,97231.97
2023-05-09T10:15:23.073Z,97220.97
2023-05-09T10:20:44.564Z,97220.34
2023-05-09T10:26:15.907Z,97204.78
2023-05-09T10:31:40.862Z,97197.06
2023-05-09T10:37:02.246Z,97192.53
2023-05-09T10:42:25.350Z,97191.34
2023-05-09T10:47:48.452Z,97174.97
2023-05-09T10:53:21.753Z,97159.25
2023-05-09T10:58:42.708Z,97156.75
2023-05-09T11:04:16.957Z,97156.56
2023-05-09T11:09:40.012Z,97141.81
2023-05-09T11:15:06.537Z,97136.91
2023-05-09T11:20:29.076Z,97135.75
2023-05-09T11:25:50.392Z,97128.41
2023-05-09T11:31:16.988Z,97125.94
2023-05-09T11:36:42.899Z,97120.16
2023-05-09T11:42:04.893Z,97096.84
2023-05-09T11:47:28.892Z,97093.41
2023-05-09T11:52:50.939Z,97081.72
2023-05-09T11:58:12.228Z,97076.97
2023-05-09T12:03:35.802Z,97064.78
2023-05-09T12:08:57.933Z,97058.22
2023-05-09T12:14:34.889Z,97046.84
2023-05-09T12:20:07.586Z,97036.66
2023-05-09T12:25:28.605Z,97027.69
2023-05-09T12:30:50.838Z,97017.28
2023-05-09T12:36:13.812Z,97029.13
2023-05-09T12:41:41.404Z,97004.25
2023-05-09T12:47:05.238Z,96992.06
2023-05-09T12:52:33.319Z,96994.69
2023-05-09T12:58:02.388Z,96995.34
2023-05-09T13:03:30.703Z,96978.22
2023-05-09T13:09:02.484Z,96976.00
2023-05-09T13:14:23.611Z,96973.59
2023-05-09T13:19:44.446Z,96971.78
2023-05-09T13:25:06.095Z,96962.25
2023-05-09T13:30:27.349Z,96956.78
2023-05-09T13:35:49.220Z,96947.34
2023-05-09T13:41:10.237Z,96938.56
2023-05-09T13:46:31.033Z,96942.00
2023-05-09T13:51:51.932Z,96925.00
2023-05-09T13:57:12.771Z,96915.44
2023-05-09T14:02:33.880Z,96893.88
2023-05-09T14:07:55.694Z,96898.19
2023-05-09T14:13:16.717Z,96878.22
2023-05-09T14:18:37.675Z,96879.25
2023-05-09T14:23:58.446Z,96867.53
2023-05-09T14:29:19.348Z,96875.88
2023-05-09T14:34:40.047Z,96863.47
2023-05-09T14:40:05.798Z,96865.25
2023-05-09T14:45:27.084Z,96857.53
2023-05-09T14:50:49.743Z,96834.84
2023-05-09T14:56:13.957Z,96835.63
2023-05-09T15:01:35.196Z,96829.38
2023-05-09T15:06:56.969Z,96817.38
2023-05-09T15:12:18.253Z,96818.84
2023-05-09T15:17:39.310Z,96828.81
2023-05-09T15:23:00.226Z,96825.63
2023-05-09T15:28:21.452Z,96810.97
2023-05-09T15:33:42.895Z,96810.72
2023-05-09T15:39:05.158Z,96813.81
2023-05-09T15:44:26.906Z,96810.06
2023-05-09T15:49:47.837Z,96801.22
2023-05-09T15:55:09.744Z,96806.38
2023-05-09T16:00:30.789Z,96798.56
2023-05-09T16:05:53.094Z,96792.81
2023-05-09T16:11:14.363Z,96795.84
2023-05-09T16:16:35.886Z,96786.84
2023-05-09T16:21:57.447Z,96778.16
2023-05-09T16:27:18.886Z,96772.91
2023-05-09T16:32:39.986Z,96769.16
2023-05-09T16:38:01.117Z,96769.00
2023-05-09T16:43:22.015Z,96759.22
2023-05-09T16:48:43.014Z,96762.72
2023-05-09T16:54:03.899Z,96759.75
2023-05-09T16:59:25.157Z,96755.34
2023-05-09T17:04:46.340Z,96742.25
2023-05-09T17:10:21.695Z,96743.25
2023-05-09T17:15:42.953Z,96740.31
2023-05-09T17:21:04.188Z,96743.53
2023-05-09T17:26:26.069Z,96741.91
2023-05-09T17:31:46.981Z,96743.75
2023-05-09T17:37:09.224Z,96737.56
2023-05-09T17:42:30.296Z,96734.78
2023-05-09T17:47:51.136Z,96730.53
2023-05-09T17:53:13.274Z,96729.91
2023-05-09T17:58:34.388Z,96729.78
2023-05-09T18:03:55.325Z,96721.59
2023-05-09T18:09:16.376Z,96727.84
2023-05-09T18:14:39.113Z,96728.03
2023-05-09T18:20:00.338Z,96726.69
2023-05-09T18:25:24.423Z,96726.38
2023-05-09T18:30:45.812Z,96720.50
2023-05-09T18:36:10.081Z,96722.97
2023-05-09T18:41:31.951Z,96723.44
2023-05-09T18:46:56.975Z,96728.03
2023-05-09T18:52:21.211Z,96723.41
2023-05-09T18:57:42.108Z,96723.28
2023-05-09T19:03:03.075Z,96722.41
2023-05-09T19:08:24.021Z,96715.34
2023-05-09T19:13:48.701Z,96722.16
2023-05-09T19:19:09.931Z,96715.41
2023-05-09T19:24:32.786Z,96710.28
2023-05-09T19:29:54.313Z,96710.94
2023-05-09T19:35:16.236Z,96703.69
2023-05-09T19:40:37.078Z,96709.22
2023-05-09T19:45:58.566Z,96702.66
2023-05-09T19:51:19.631Z,96693.63
2023-05-09T19:56:40.453Z,96689.34
2023-05-09T20:02:01.537Z,96690.78
2023-05-09T20:13:01.230Z,96690.91
2023-05-09T20:18:22.704Z,96674.31
2023-05-09T20:23:43.912Z,96668.72
2023-05-09T20:29:05.068Z,96667.84
2023-05-09T20:34:27.317Z,96670.28
2023-05-09T20:39:48.391Z,96662.22
2023-05-09T20:45:09.626Z,96658.59
2023-05-09T20:50:30.401Z,96654.94
2023-05-09T20:55:51.439Z,96644.44
2023-05-09T21:01:12.579Z,96638.63
2023-05-09T21:06:33.611Z,96635.97
2023-05-09T21:11:54.757Z,96619.25
2023-05-09T21:17:15.732Z,96618.91
2023-05-09T21:22:36.784Z,96608.59
2023-05-09T21:27:57.500Z,96603.16
2023-05-09T21:33:18.493Z,96596.91
2023-05-09T21:38:39.550Z,96593.91
2023-05-09T21:44:00.312Z,96596.97
2023-05-09T21:49:21.802Z,96584.72
2023-05-09T21:54:42.824Z,96588.63
2023-05-09T22:00:05.666Z,96569.31
2023-05-09T22:05:33.720Z,96561.25
2023-05-09T22:10:54.491Z,96562.22
2023-05-09T22:16:15.371Z,96560.06
2023-05-09T22:21:36.139Z,96563.94
2023-05-09T22:26:56.875Z,96560.97
2023-05-09T22:32:17.836Z,96552.59
2023-05-09T22:37:38.958Z,96540.00
2023-05-09T22:42:59.876Z,96541.13
2023-05-09T22:48:23.377Z,96539.94
2023-05-09T22:53:44.071Z,96538.88
2023-05-09T22:59:05.035Z,96526.13
2023-05-09T23:04:25.975Z,96519.03
2023-05-09T23:09:46.649Z,96514.78
2023-05-09T23:15:08.035Z,96504.13
2023-05-09T23:20:28.775Z,96502.78
2023-05-09T23:25:49.520Z,96502.41
2023-05-09T23:31:10.650Z,96495.84
2023-05-09T23:36:32.914Z,96497.25
2023-05-09T23:41:54.024Z,96489.19
2023-05-09T23:47:16.919Z,96488.69
2023-05-09T23:52:37.832Z,96477.06
2023-05-09T23:57:59.511Z,96485.16
